sensor_id;sensor_type;location;lat;lon;timestamp;P1;durP1;ratioP1;P2;durP2;ratioP2
8881;SDS011;4477;48.736;9.176;2024-03-23T00:53:52;3.23;;;2.40;;
8881;SDS011;4477;48.736;9.176;2024-03-23T00:56:18;3.37;;;2.73;;
8881;SDS011;4477;48.736;9.176;2024-03-23T00:58:45;2.73;;;2.20;;
8881;SDS011;4477;48.736;9.176;2024-03-23T01:01:11;2.60;;;2.40;;
8881;SDS011;4477;48.736;9.176;2024-03-23T01:03:38;3.77;;;2.83;;
8881;SDS011;4477;48.736;9.176;2024-03-23T01:06:03;2.53;;;2.33;;
8881;SDS011;4477;48.736;9.176;2024-03-23T01:08:30;3.17;;;2.53;;
8881;SDS011;4477;48.736;9.176;2024-03-23T01:10:58;3.53;;;2.13;;
8881;SDS011;4477;48.736;9.176;2024-03-23T01:13:27;7.93;;;2.40;;
8881;SDS011;4477;48.736;9.176;2024-03-23T01:15:54;2.40;;;2.20;;
8881;SDS011;4477;48.736;9.176;2024-03-23T01:18:23;2.80;;;2.50;;
8881;SDS011;4477;48.736;9.176;2024-03-23T01:20:49;2.30;;;2.10;;
8881;SDS011;4477;48.736;9.176;2024-03-23T01:23:19;2.73;;;2.10;;
8881;SDS011;4477;48.736;9.176;2024-03-23T01:25:51;3.63;;;2.23;;
8881;SDS011;4477;48.736;9.176;2024-03-23T01:28:20;3.87;;;2.23;;
8881;SDS011;4477;48.736;9.176;2024-03-23T01:30:46;2.13;;;1.93;;
8881;SDS011;4477;48.736;9.176;2024-03-23T01:33:13;2.77;;;2.10;;
8881;SDS011;4477;48.736;9.176;2024-03-23T01:35:39;2.57;;;2.20;;
8881;SDS011;4477;48.736;9.176;2024-03-23T01:38:06;2.50;;;2.30;;
8881;SDS011;4477;48.736;9.176;2024-03-23T01:40:32;2.73;;;2.30;;
8881;SDS011;4477;48.736;9.176;2024-03-23T01:43:02;2.57;;;2.10;;
8881;SDS011;4477;48.736;9.176;2024-03-23T01:45:31;2.70;;;2.50;;
8881;SDS011;4477;48.736;9.176;2024-03-23T01:47:58;4.03;;;2.50;;
8881;SDS011;4477;48.736;9.176;2024-03-23T01:50:24;4.73;;;2.37;;
8881;SDS011;4477;48.736;9.176;2024-03-23T01:52:52;2.23;;;2.03;;
8881;SDS011;4477;48.736;9.176;2024-03-23T01:55:18;2.77;;;2.20;;
8881;SDS011;4477;48.736;9.176;2024-03-23T01:57:45;3.30;;;2.50;;
8881;SDS011;4477;48.736;9.176;2024-03-23T02:00:11;3.43;;;2.67;;
8881;SDS011;4477;48.736;9.176;2024-03-23T02:02:44;3.37;;;2.20;;
8881;SDS011;4477;48.736;9.176;2024-03-23T02:05:10;3.43;;;2.70;;
8881;SDS011;4477;48.736;9.176;2024-03-23T02:07:38;3.57;;;2.37;;
8881;SDS011;4477;48.736;9.176;2024-03-23T02:10:04;3.80;;;2.40;;
8881;SDS011;4477;48.736;9.176;2024-03-23T02:12:32;2.63;;;2.17;;
8881;SDS011;4477;48.736;9.176;2024-03-23T02:14:58;2.70;;;2.50;;
8881;SDS011;4477;48.736;9.176;2024-03-23T02:17:25;2.43;;;2.20;;
8881;SDS011;4477;48.736;9.176;2024-03-23T02:19:53;3.67;;;2.50;;
8881;SDS011;4477;48.736;9.176;2024-03-23T02:22:19;3.67;;;2.50;;
8881;SDS011;4477;48.736;9.176;2024-03-23T02:24:47;4.47;;;2.47;;
8881;SDS011;4477;48.736;9.176;2024-03-23T02:27:14;2.47;;;2.27;;
8881;SDS011;4477;48.736;9.176;2024-03-23T02:29:39;2.87;;;2.57;;
8881;SDS011;4477;48.736;9.176;2024-03-23T02:32:06;3.03;;;2.73;;
8881;SDS011;4477;48.736;9.176;2024-03-23T02:34:34;4.10;;;2.53;;
8881;SDS011;4477;48.736;9.176;2024-03-23T02:37:01;4.37;;;2.43;;
8881;SDS011;4477;48.736;9.176;2024-03-23T02:39:27;3.83;;;2.67;;
8881;SDS011;4477;48.736;9.176;2024-03-23T02:41:55;2.83;;;2.40;;
8881;SDS011;4477;48.736;9.176;2024-03-23T02:44:21;4.13;;;2.43;;
8881;SDS011;4477;48.736;9.176;2024-03-23T02:46:48;3.43;;;2.70;;
8881;SDS011;4477;48.736;9.176;2024-03-23T02:49:14;2.43;;;2.20;;
8881;SDS011;4477;48.736;9.176;2024-03-23T02:51:40;2.80;;;2.30;;
8881;SDS011;4477;48.736;9.176;2024-03-23T02:54:06;2.53;;;2.33;;
8881;SDS011;4477;48.736;9.176;2024-03-23T02:56:33;2.37;;;2.10;;
8881;SDS011;4477;48.736;9.176;2024-03-23T02:59:00;2.60;;;2.30;;
8881;SDS011;4477;48.736;9.176;2024-03-23T03:01:27;2.80;;;2.50;;
8881;SDS011;4477;48.736;9.176;2024-03-23T03:03:53;2.17;;;2.00;;
8881;SDS011;4477;48.736;9.176;2024-03-23T03:06:23;2.60;;;2.23;;
8881;SDS011;4477;48.736;9.176;2024-03-23T03:08:49;2.67;;;2.10;;
8881;SDS011;4477;48.736;9.176;2024-03-23T03:11:16;2.20;;;2.00;;
8881;SDS011;4477;48.736;9.176;2024-03-23T03:13:42;3.90;;;2.50;;
8881;SDS011;4477;48.736;9.176;2024-03-23T03:16:10;3.10;;;2.20;;
8881;SDS011;4477;48.736;9.176;2024-03-23T03:18:37;2.30;;;2.03;;
8881;SDS011;4477;48.736;9.176;2024-03-23T03:21:03;3.47;;;2.37;;
8881;SDS011;4477;48.736;9.176;2024-03-23T03:23:30;2.77;;;2.37;;
8881;SDS011;4477;48.736;9.176;2024-03-23T03:25:57;2.30;;;2.10;;
8881;SDS011;4477;48.736;9.176;2024-03-23T03:28:23;3.07;;;2.23;;
8881;SDS011;4477;48.736;9.176;2024-03-23T03:30:51;3.07;;;2.47;;
8881;SDS011;4477;48.736;9.176;2024-03-23T03:33:18;2.70;;;2.50;;
8881;SDS011;4477;48.736;9.176;2024-03-23T03:35:45;2.67;;;2.40;;
8881;SDS011;4477;48.736;9.176;2024-03-23T03:38:11;2.50;;;2.30;;
8881;SDS011;4477;48.736;9.176;2024-03-23T03:40:38;2.63;;;2.37;;
8881;SDS011;4477;48.736;9.176;2024-03-23T03:43:03;2.93;;;2.23;;
8881;SDS011;4477;48.736;9.176;2024-03-23T03:45:30;2.80;;;2.27;;
8881;SDS011;4477;48.736;9.176;2024-03-23T03:47:56;3.13;;;2.50;;
8881;SDS011;4477;48.736;9.176;2024-03-23T03:50:25;2.40;;;2.20;;
8881;SDS011;4477;48.736;9.176;2024-03-23T03:52:51;3.20;;;2.70;;
8881;SDS011;4477;48.736;9.176;2024-03-23T03:55:18;5.17;;;2.83;;
8881;SDS011;4477;48.736;9.176;2024-03-23T03:57:44;2.63;;;2.43;;
8881;SDS011;4477;48.736;9.176;2024-03-23T04:00:11;3.40;;;2.63;;
8881;SDS011;4477;48.736;9.176;2024-03-23T04:02:37;3.97;;;2.20;;
8881;SDS011;4477;48.736;9.176;2024-03-23T04:05:04;3.00;;;2.30;;
8881;SDS011;4477;48.736;9.176;2024-03-23T04:07:32;3.17;;;2.60;;
8881;SDS011;4477;48.736;9.176;2024-03-23T04:09:59;2.83;;;2.30;;
8881;SDS011;4477;48.736;9.176;2024-03-23T04:12:25;3.37;;;2.77;;
8881;SDS011;4477;48.736;9.176;2024-03-23T04:14:52;3.60;;;2.40;;
8881;SDS011;4477;48.736;9.176;2024-03-23T04:17:18;3.30;;;2.50;;
8881;SDS011;4477;48.736;9.176;2024-03-23T04:19:45;2.70;;;2.50;;
8881;SDS011;4477;48.736;9.176;2024-03-23T04:22:12;3.50;;;2.93;;
8881;SDS011;4477;48.736;9.176;2024-03-23T04:24:40;3.10;;;2.50;;
8881;SDS011;4477;48.736;9.176;2024-03-23T04:27:06;3.83;;;2.63;;
8881;SDS011;4477;48.736;9.176;2024-03-23T04:29:33;3.10;;;2.80;;
8881;SDS011;4477;48.736;9.176;2024-03-23T04:31:59;3.30;;;2.93;;
8881;SDS011;4477;48.736;9.176;2024-03-23T04:34:26;3.13;;;2.77;;
8881;SDS011;4477;48.736;9.176;2024-03-23T04:36:52;5.83;;;2.77;;
8881;SDS011;4477;48.736;9.176;2024-03-23T04:39:19;3.43;;;2.93;;
8881;SDS011;4477;48.736;9.176;2024-03-23T04:41:47;4.87;;;2.90;;
8881;SDS011;4477;48.736;9.176;2024-03-23T04:44:15;3.33;;;3.03;;
8881;SDS011;4477;48.736;9.176;2024-03-23T04:46:42;4.50;;;2.83;;
8881;SDS011;4477;48.736;9.176;2024-03-23T04:49:08;4.63;;;2.63;;
8881;SDS011;4477;48.736;9.176;2024-03-23T04:51:35;4.90;;;3.07;;
8881;SDS011;4477;48.736;9.176;2024-03-23T04:54:03;2.93;;;2.60;;
8881;SDS011;4477;48.736;9.176;2024-03-23T04:56:31;4.20;;;2.70;;
8881;SDS011;4477;48.736;9.176;2024-03-23T04:58:59;4.50;;;3.07;;
8881;SDS011;4477;48.736;9.176;2024-03-23T05:01:26;6.33;;;4.63;;
8881;SDS011;4477;48.736;9.176;2024-03-23T05:03:53;5.90;;;5.30;;
8881;SDS011;4477;48.736;9.176;2024-03-23T05:06:19;7.03;;;5.37;;
8881;SDS011;4477;48.736;9.176;2024-03-23T05:08:46;9.27;;;6.13;;
8881;SDS011;4477;48.736;9.176;2024-03-23T05:11:13;8.43;;;6.80;;
8881;SDS011;4477;48.736;9.176;2024-03-23T05:13:48;8.87;;;7.70;;
8881;SDS011;4477;48.736;9.176;2024-03-23T05:19:08;10.00;;;8.53;;
8881;SDS011;4477;48.736;9.176;2024-03-23T05:21:34;12.17;;;9.00;;
8881;SDS011;4477;48.736;9.176;2024-03-23T05:24:02;13.53;;;10.60;;
8881;SDS011;4477;48.736;9.176;2024-03-23T05:26:30;13.70;;;11.80;;
8881;SDS011;4477;48.736;9.176;2024-03-23T05:28:59;17.23;;;13.13;;
8881;SDS011;4477;48.736;9.176;2024-03-23T05:31:26;16.70;;;12.87;;
8881;SDS011;4477;48.736;9.176;2024-03-23T05:33:56;18.03;;;14.07;;
8881;SDS011;4477;48.736;9.176;2024-03-23T05:36:27;21.30;;;15.57;;
8881;SDS011;4477;48.736;9.176;2024-03-23T05:39:03;23.63;;;15.83;;
8881;SDS011;4477;48.736;9.176;2024-03-23T05:41:31;20.03;;;15.47;;
8881;SDS011;4477;48.736;9.176;2024-03-23T05:44:00;19.60;;;15.97;;
8881;SDS011;4477;48.736;9.176;2024-03-23T05:46:31;21.13;;;15.90;;
8881;SDS011;4477;48.736;9.176;2024-03-23T05:49:00;24.07;;;16.53;;
8881;SDS011;4477;48.736;9.176;2024-03-23T05:51:34;21.77;;;15.80;;
8881;SDS011;4477;48.736;9.176;2024-03-23T05:54:01;19.13;;;14.83;;
8881;SDS011;4477;48.736;9.176;2024-03-23T05:56:28;16.00;;;11.50;;
8881;SDS011;4477;48.736;9.176;2024-03-23T05:58:54;16.57;;;12.63;;
8881;SDS011;4477;48.736;9.176;2024-03-23T06:01:22;15.57;;;12.00;;
8881;SDS011;4477;48.736;9.176;2024-03-23T06:03:48;15.27;;;11.07;;
8881;SDS011;4477;48.736;9.176;2024-03-23T06:06:17;16.60;;;10.33;;
8881;SDS011;4477;48.736;9.176;2024-03-23T06:08:42;10.77;;;8.53;;
8881;SDS011;4477;48.736;9.176;2024-03-23T06:11:09;12.13;;;9.00;;
8881;SDS011;4477;48.736;9.176;2024-03-23T06:13:35;11.80;;;8.07;;
8881;SDS011;4477;48.736;9.176;2024-03-23T06:16:02;7.90;;;5.73;;
8881;SDS011;4477;48.736;9.176;2024-03-23T06:18:28;6.03;;;4.63;;
8881;SDS011;4477;48.736;9.176;2024-03-23T06:20:55;6.23;;;4.70;;
8881;SDS011;4477;48.736;9.176;2024-03-23T06:23:22;5.70;;;3.93;;
8881;SDS011;4477;48.736;9.176;2024-03-23T06:25:49;4.17;;;3.50;;
8881;SDS011;4477;48.736;9.176;2024-03-23T06:28:15;4.57;;;2.70;;
8881;SDS011;4477;48.736;9.176;2024-03-23T06:30:43;3.33;;;2.20;;
8881;SDS011;4477;48.736;9.176;2024-03-23T06:33:09;4.37;;;2.60;;
8881;SDS011;4477;48.736;9.176;2024-03-23T06:35:36;2.37;;;1.80;;
8881;SDS011;4477;48.736;9.176;2024-03-23T06:38:01;1.47;;;1.20;;
8881;SDS011;4477;48.736;9.176;2024-03-23T06:40:30;1.03;;;0.97;;
8881;SDS011;4477;48.736;9.176;2024-03-23T06:42:56;1.10;;;1.00;;
8881;SDS011;4477;48.736;9.176;2024-03-23T06:45:23;0.80;;;0.80;;
8881;SDS011;4477;48.736;9.176;2024-03-23T06:47:49;1.57;;;0.93;;
8881;SDS011;4477;48.736;9.176;2024-03-23T06:50:17;0.70;;;0.70;;
8881;SDS011;4477;48.736;9.176;2024-03-23T06:52:44;0.80;;;0.80;;
8881;SDS011;4477;48.736;9.176;2024-03-23T06:55:10;0.73;;;0.60;;
8881;SDS011;4477;48.736;9.176;2024-03-23T06:57:38;0.80;;;0.80;;
8881;SDS011;4477;48.736;9.176;2024-03-23T07:00:04;0.90;;;0.70;;
8881;SDS011;4477;48.736;9.176;2024-03-23T07:02:35;1.43;;;0.87;;
8881;SDS011;4477;48.736;9.176;2024-03-23T07:05:01;0.70;;;0.70;;
8881;SDS011;4477;48.736;9.176;2024-03-23T07:07:28;0.70;;;0.70;;
8881;SDS011;4477;48.736;9.176;2024-03-23T07:09:55;0.60;;;0.60;;
8881;SDS011;4477;48.736;9.176;2024-03-23T07:12:22;0.80;;;0.50;;
8881;SDS011;4477;48.736;9.176;2024-03-23T07:14:50;0.70;;;0.70;;
8881;SDS011;4477;48.736;9.176;2024-03-23T07:17:17;0.60;;;0.60;;
8881;SDS011;4477;48.736;9.176;2024-03-23T07:19:43;0.50;;;0.50;;
8881;SDS011;4477;48.736;9.176;2024-03-23T07:22:10;0.50;;;0.50;;
8881;SDS011;4477;48.736;9.176;2024-03-23T07:24:36;0.93;;;0.43;;
8881;SDS011;4477;48.736;9.176;2024-03-23T07:27:04;0.80;;;0.50;;
8881;SDS011;4477;48.736;9.176;2024-03-23T07:29:31;0.40;;;0.40;;
8881;SDS011;4477;48.736;9.176;2024-03-23T07:31:59;0.40;;;0.40;;
8881;SDS011;4477;48.736;9.176;2024-03-23T07:34:25;0.50;;;0.40;;
8881;SDS011;4477;48.736;9.176;2024-03-23T07:36:52;0.50;;;0.50;;
8881;SDS011;4477;48.736;9.176;2024-03-23T07:39:18;0.40;;;0.40;;
8881;SDS011;4477;48.736;9.176;2024-03-23T07:41:45;0.30;;;0.30;;
8881;SDS011;4477;48.736;9.176;2024-03-23T07:44:11;0.30;;;0.30;;
8881;SDS011;4477;48.736;9.176;2024-03-23T07:46:38;0.60;;;0.60;;
8881;SDS011;4477;48.736;9.176;2024-03-23T07:49:06;0.40;;;0.40;;
8881;SDS011;4477;48.736;9.176;2024-03-23T07:51:33;0.40;;;0.40;;
8881;SDS011;4477;48.736;9.176;2024-03-23T07:54:00;0.30;;;0.30;;
8881;SDS011;4477;48.736;9.176;2024-03-23T07:56:26;0.63;;;0.40;;
8881;SDS011;4477;48.736;9.176;2024-03-23T07:58:52;0.40;;;0.40;;
8881;SDS011;4477;48.736;9.176;2024-03-23T08:01:20;0.40;;;0.40;;
8881;SDS011;4477;48.736;9.176;2024-03-23T08:03:46;0.60;;;0.60;;
8881;SDS011;4477;48.736;9.176;2024-03-23T08:06:15;0.77;;;0.40;;
8881;SDS011;4477;48.736;9.176;2024-03-23T08:08:43;0.40;;;0.40;;
8881;SDS011;4477;48.736;9.176;2024-03-23T08:11:11;0.60;;;0.60;;
8881;SDS011;4477;48.736;9.176;2024-03-23T08:13:38;0.50;;;0.47;;
8881;SDS011;4477;48.736;9.176;2024-03-23T08:16:06;0.67;;;0.40;;
8881;SDS011;4477;48.736;9.176;2024-03-23T08:18:32;1.77;;;0.60;;
8881;SDS011;4477;48.736;9.176;2024-03-23T08:20:59;1.83;;;0.60;;
8881;SDS011;4477;48.736;9.176;2024-03-23T08:23:27;0.77;;;0.53;;
8881;SDS011;4477;48.736;9.176;2024-03-23T08:25:57;1.50;;;0.70;;
8881;SDS011;4477;48.736;9.176;2024-03-23T08:28:23;0.93;;;0.70;;
8881;SDS011;4477;48.736;9.176;2024-03-23T08:30:50;1.13;;;0.73;;
8881;SDS011;4477;48.736;9.176;2024-03-23T08:33:16;2.23;;;0.80;;
8881;SDS011;4477;48.736;9.176;2024-03-23T08:35:43;0.83;;;0.83;;
8881;SDS011;4477;48.736;9.176;2024-03-23T08:38:18;1.20;;;1.10;;
8881;SDS011;4477;48.736;9.176;2024-03-23T08:40:47;1.47;;;0.97;;
8881;SDS011;4477;48.736;9.176;2024-03-23T08:43:13;1.27;;;1.13;;
8881;SDS011;4477;48.736;9.176;2024-03-23T08:45:40;0.87;;;0.83;;
8881;SDS011;4477;48.736;9.176;2024-03-23T08:48:06;1.10;;;1.00;;
8881;SDS011;4477;48.736;9.176;2024-03-23T08:50:34;0.80;;;0.80;;
8881;SDS011;4477;48.736;9.176;2024-03-23T08:53:00;1.20;;;0.90;;
8881;SDS011;4477;48.736;9.176;2024-03-23T08:55:27;1.10;;;1.00;;
8881;SDS011;4477;48.736;9.176;2024-03-23T08:57:54;1.53;;;1.10;;
8881;SDS011;4477;48.736;9.176;2024-03-23T09:00:21;0.90;;;0.80;;
8881;SDS011;4477;48.736;9.176;2024-03-23T09:02:47;1.87;;;0.90;;
8881;SDS011;4477;48.736;9.176;2024-03-23T09:05:14;1.17;;;1.07;;
8881;SDS011;4477;48.736;9.176;2024-03-23T09:07:40;1.63;;;0.90;;
8881;SDS011;4477;48.736;9.176;2024-03-23T09:10:07;1.57;;;1.20;;
8881;SDS011;4477;48.736;9.176;2024-03-23T09:12:33;1.67;;;1.30;;
8881;SDS011;4477;48.736;9.176;2024-03-23T09:15:02;2.60;;;1.60;;
8881;SDS011;4477;48.736;9.176;2024-03-23T09:17:28;1.53;;;1.40;;
8881;SDS011;4477;48.736;9.176;2024-03-23T09:19:55;2.60;;;1.80;;
8881;SDS011;4477;48.736;9.176;2024-03-23T09:22:22;2.27;;;1.50;;
8881;SDS011;4477;48.736;9.176;2024-03-23T09:24:48;2.73;;;1.80;;
8881;SDS011;4477;48.736;9.176;2024-03-23T09:27:15;3.57;;;2.07;;
8881;SDS011;4477;48.736;9.176;2024-03-23T09:29:41;3.80;;;2.00;;
8881;SDS011;4477;48.736;9.176;2024-03-23T09:32:09;5.60;;;2.53;;
8881;SDS011;4477;48.736;9.176;2024-03-23T09:34:35;4.83;;;2.77;;
8881;SDS011;4477;48.736;9.176;2024-03-23T09:37:02;6.47;;;3.57;;
8881;SDS011;4477;48.736;9.176;2024-03-23T09:39:27;3.80;;;2.63;;
8881;SDS011;4477;48.736;9.176;2024-03-23T09:41:56;4.73;;;2.47;;
8881;SDS011;4477;48.736;9.176;2024-03-23T09:44:22;3.40;;;2.60;;
8881;SDS011;4477;48.736;9.176;2024-03-23T09:46:51;5.23;;;2.70;;
8881;SDS011;4477;48.736;9.176;2024-03-23T09:49:18;5.23;;;2.73;;
8881;SDS011;4477;48.736;9.176;2024-03-23T09:51:45;4.63;;;2.77;;
8881;SDS011;4477;48.736;9.176;2024-03-23T09:54:11;5.57;;;2.87;;
8881;SDS011;4477;48.736;9.176;2024-03-23T09:56:38;6.13;;;2.93;;
8881;SDS011;4477;48.736;9.176;2024-03-23T09:59:04;6.37;;;2.63;;
8881;SDS011;4477;48.736;9.176;2024-03-23T10:01:31;5.27;;;2.50;;
8881;SDS011;4477;48.736;9.176;2024-03-23T10:03:58;5.20;;;2.63;;
8881;SDS011;4477;48.736;9.176;2024-03-23T10:06:26;3.97;;;2.80;;
8881;SDS011;4477;48.736;9.176;2024-03-23T10:08:52;6.00;;;3.33;;
8881;SDS011;4477;48.736;9.176;2024-03-23T10:11:20;4.97;;;2.87;;
8881;SDS011;4477;48.736;9.176;2024-03-23T10:13:46;4.20;;;2.93;;
8881;SDS011;4477;48.736;9.176;2024-03-23T10:16:20;4.43;;;2.93;;
8881;SDS011;4477;48.736;9.176;2024-03-23T10:18:47;4.57;;;2.67;;
8881;SDS011;4477;48.736;9.176;2024-03-23T10:21:15;4.50;;;2.50;;
8881;SDS011;4477;48.736;9.176;2024-03-23T10:23:43;5.00;;;2.60;;
8881;SDS011;4477;48.736;9.176;2024-03-23T10:26:14;4.53;;;2.60;;
8881;SDS011;4477;48.736;9.176;2024-03-23T10:28:51;3.43;;;2.33;;
8881;SDS011;4477;48.736;9.176;2024-03-23T10:31:18;5.63;;;2.50;;
8881;SDS011;4477;48.736;9.176;2024-03-23T10:33:45;4.67;;;2.77;;
8881;SDS011;4477;48.736;9.176;2024-03-23T10:36:12;5.20;;;2.60;;
8881;SDS011;4477;48.736;9.176;2024-03-23T10:38:39;3.93;;;2.87;;
8881;SDS011;4477;48.736;9.176;2024-03-23T10:41:09;4.53;;;2.57;;
8881;SDS011;4477;48.736;9.176;2024-03-23T10:43:36;5.17;;;2.90;;
8881;SDS011;4477;48.736;9.176;2024-03-23T10:46:03;4.13;;;2.50;;
8881;SDS011;4477;48.736;9.176;2024-03-23T10:48:29;5.23;;;3.20;;
8881;SDS011;4477;48.736;9.176;2024-03-23T10:50:57;5.87;;;2.80;;
8881;SDS011;4477;48.736;9.176;2024-03-23T10:53:25;4.27;;;3.00;;
8881;SDS011;4477;48.736;9.176;2024-03-23T10:55:53;4.83;;;3.03;;
8881;SDS011;4477;48.736;9.176;2024-03-23T10:58:23;5.07;;;3.00;;
8881;SDS011;4477;48.736;9.176;2024-03-23T11:00:53;4.57;;;2.90;;
8881;SDS011;4477;48.736;9.176;2024-03-23T11:03:32;2.73;;;1.77;;
8881;SDS011;4477;48.736;9.176;2024-03-23T11:06:01;3.43;;;2.27;;
8881;SDS011;4477;48.736;9.176;2024-03-23T11:08:31;4.00;;;2.53;;
8881;SDS011;4477;48.736;9.176;2024-03-23T11:11:16;3.73;;;2.60;;
8881;SDS011;4477;48.736;9.176;2024-03-23T11:13:47;7.13;;;3.07;;
8881;SDS011;4477;48.736;9.176;2024-03-23T11:16:15;6.57;;;3.10;;
8881;SDS011;4477;48.736;9.176;2024-03-23T11:18:42;5.10;;;3.03;;
8881;SDS011;4477;48.736;9.176;2024-03-23T11:21:10;3.70;;;2.60;;
8881;SDS011;4477;48.736;9.176;2024-03-23T11:23:36;4.27;;;2.43;;
8881;SDS011;4477;48.736;9.176;2024-03-23T11:26:06;3.83;;;2.50;;
8881;SDS011;4477;48.736;9.176;2024-03-23T11:28:33;3.77;;;2.30;;
8881;SDS011;4477;48.736;9.176;2024-03-23T11:31:01;3.43;;;2.10;;
8881;SDS011;4477;48.736;9.176;2024-03-23T11:33:34;2.67;;;2.03;;
8881;SDS011;4477;48.736;9.176;2024-03-23T11:36:01;4.03;;;1.90;;
8881;SDS011;4477;48.736;9.176;2024-03-23T11:38:28;2.57;;;1.83;;
8881;SDS011;4477;48.736;9.176;2024-03-23T11:40:55;4.53;;;1.90;;
8881;SDS011;4477;48.736;9.176;2024-03-23T11:43:21;2.00;;;1.70;;
8881;SDS011;4477;48.736;9.176;2024-03-23T11:45:50;3.00;;;1.80;;
8881;SDS011;4477;48.736;9.176;2024-03-23T11:48:19;3.90;;;1.80;;
8881;SDS011;4477;48.736;9.176;2024-03-23T11:50:48;2.40;;;1.57;;
8881;SDS011;4477;48.736;9.176;2024-03-23T11:53:15;2.03;;;1.43;;
8881;SDS011;4477;48.736;9.176;2024-03-23T11:55:45;3.57;;;1.50;;
8881;SDS011;4477;48.736;9.176;2024-03-23T11:58:12;4.60;;;1.40;;
8881;SDS011;4477;48.736;9.176;2024-03-23T12:00:40;5.17;;;3.53;;
8881;SDS011;4477;48.736;9.176;2024-03-23T12:03:06;2.77;;;1.40;;
8881;SDS011;4477;48.736;9.176;2024-03-23T12:05:36;4.30;;;1.37;;
8881;SDS011;4477;48.736;9.176;2024-03-23T12:10:49;2.57;;;1.13;;
8881;SDS011;4477;48.736;9.176;2024-03-23T12:13:17;3.87;;;1.43;;
8881;SDS011;4477;48.736;9.176;2024-03-23T12:15:46;3.43;;;1.43;;
8881;SDS011;4477;48.736;9.176;2024-03-23T12:18:13;2.93;;;1.40;;
8881;SDS011;4477;48.736;9.176;2024-03-23T12:20:42;2.90;;;1.50;;
8881;SDS011;4477;48.736;9.176;2024-03-23T12:23:08;4.87;;;1.80;;
8881;SDS011;4477;48.736;9.176;2024-03-23T12:25:36;3.57;;;1.30;;
8881;SDS011;4477;48.736;9.176;2024-03-23T12:28:03;2.57;;;1.47;;
8881;SDS011;4477;48.736;9.176;2024-03-23T12:30:32;3.70;;;1.47;;
8881;SDS011;4477;48.736;9.176;2024-03-23T12:32:59;2.63;;;1.43;;
8881;SDS011;4477;48.736;9.176;2024-03-23T12:35:26;5.13;;;1.50;;
8881;SDS011;4477;48.736;9.176;2024-03-23T12:37:53;2.97;;;1.33;;
8881;SDS011;4477;48.736;9.176;2024-03-23T12:40:20;3.50;;;1.60;;
8881;SDS011;4477;48.736;9.176;2024-03-23T12:42:46;3.67;;;1.70;;
8881;SDS011;4477;48.736;9.176;2024-03-23T12:45:13;4.23;;;1.70;;
8881;SDS011;4477;48.736;9.176;2024-03-23T12:47:39;3.63;;;1.50;;
8881;SDS011;4477;48.736;9.176;2024-03-23T12:50:06;3.33;;;1.83;;
8881;SDS011;4477;48.736;9.176;2024-03-23T12:52:34;4.43;;;1.80;;
8881;SDS011;4477;48.736;9.176;2024-03-23T12:55:02;5.20;;;2.00;;
8881;SDS011;4477;48.736;9.176;2024-03-23T12:57:30;2.67;;;1.73;;
8881;SDS011;4477;48.736;9.176;2024-03-23T12:59:57;4.77;;;2.40;;
8881;SDS011;4477;48.736;9.176;2024-03-23T13:02:23;6.20;;;2.07;;
8881;SDS011;4477;48.736;9.176;2024-03-23T13:04:51;5.87;;;2.10;;
8881;SDS011;4477;48.736;9.176;2024-03-23T13:07:17;4.73;;;2.00;;
8881;SDS011;4477;48.736;9.176;2024-03-23T13:09:45;4.57;;;1.90;;
8881;SDS011;4477;48.736;9.176;2024-03-23T13:12:12;7.60;;;2.67;;
8881;SDS011;4477;48.736;9.176;2024-03-23T13:14:40;4.93;;;2.37;;
8881;SDS011;4477;48.736;9.176;2024-03-23T13:17:07;5.43;;;2.00;;
8881;SDS011;4477;48.736;9.176;2024-03-23T13:19:33;4.83;;;2.10;;
8881;SDS011;4477;48.736;9.176;2024-03-23T13:22:00;3.93;;;1.90;;
8881;SDS011;4477;48.736;9.176;2024-03-23T13:24:27;4.13;;;2.30;;
8881;SDS011;4477;48.736;9.176;2024-03-23T13:26:55;3.80;;;1.70;;
8881;SDS011;4477;48.736;9.176;2024-03-23T13:29:23;5.17;;;2.30;;
8881;SDS011;4477;48.736;9.176;2024-03-23T13:31:51;4.30;;;1.40;;
8881;SDS011;4477;48.736;9.176;2024-03-23T13:34:17;2.50;;;0.90;;
8881;SDS011;4477;48.736;9.176;2024-03-23T13:36:45;3.53;;;1.00;;
8881;SDS011;4477;48.736;9.176;2024-03-23T13:39:11;4.17;;;0.90;;
8881;SDS011;4477;48.736;9.176;2024-03-23T13:41:40;1.70;;;1.10;;
8881;SDS011;4477;48.736;9.176;2024-03-23T13:44:07;2.07;;;1.10;;
8881;SDS011;4477;48.736;9.176;2024-03-23T13:46:37;2.60;;;0.60;;
8881;SDS011;4477;48.736;9.176;2024-03-23T13:49:03;3.63;;;1.10;;
8881;SDS011;4477;48.736;9.176;2024-03-23T13:51:30;1.23;;;0.90;;
8881;SDS011;4477;48.736;9.176;2024-03-23T13:53:56;1.77;;;0.80;;
8881;SDS011;4477;48.736;9.176;2024-03-23T13:56:26;1.63;;;0.93;;
8881;SDS011;4477;48.736;9.176;2024-03-23T13:58:53;2.93;;;1.13;;
8881;SDS011;4477;48.736;9.176;2024-03-23T14:01:20;2.70;;;1.10;;
8881;SDS011;4477;48.736;9.176;2024-03-23T14:03:47;2.40;;;1.00;;
8881;SDS011;4477;48.736;9.176;2024-03-23T14:06:14;2.33;;;1.40;;
8881;SDS011;4477;48.736;9.176;2024-03-23T14:08:40;3.43;;;1.10;;
8881;SDS011;4477;48.736;9.176;2024-03-23T14:11:08;2.50;;;1.20;;
8881;SDS011;4477;48.736;9.176;2024-03-23T14:13:34;3.07;;;1.27;;
8881;SDS011;4477;48.736;9.176;2024-03-23T14:16:01;3.77;;;1.30;;
8881;SDS011;4477;48.736;9.176;2024-03-23T14:18:28;4.10;;;1.30;;
8881;SDS011;4477;48.736;9.176;2024-03-23T14:20:57;1.00;;;0.90;;
8881;SDS011;4477;48.736;9.176;2024-03-23T14:23:24;0.97;;;0.80;;
8881;SDS011;4477;48.736;9.176;2024-03-23T14:25:54;2.23;;;0.80;;
8881;SDS011;4477;48.736;9.176;2024-03-23T14:28:21;2.60;;;1.33;;
8881;SDS011;4477;48.736;9.176;2024-03-23T14:30:48;1.47;;;0.60;;
8881;SDS011;4477;48.736;9.176;2024-03-23T14:33:14;0.90;;;0.50;;
8881;SDS011;4477;48.736;9.176;2024-03-23T14:35:42;1.10;;;0.60;;
8881;SDS011;4477;48.736;9.176;2024-03-23T14:38:09;1.23;;;0.60;;
8881;SDS011;4477;48.736;9.176;2024-03-23T14:40:36;1.90;;;0.60;;
8881;SDS011;4477;48.736;9.176;2024-03-23T14:43:02;1.30;;;0.70;;
8881;SDS011;4477;48.736;9.176;2024-03-23T14:45:29;1.60;;;0.80;;
8881;SDS011;4477;48.736;9.176;2024-03-23T14:47:55;1.47;;;0.77;;
8881;SDS011;4477;48.736;9.176;2024-03-23T14:50:23;1.30;;;0.60;;
8881;SDS011;4477;48.736;9.176;2024-03-23T14:52:49;2.33;;;0.80;;
8881;SDS011;4477;48.736;9.176;2024-03-23T14:55:18;1.67;;;0.80;;
8881;SDS011;4477;48.736;9.176;2024-03-23T14:57:44;1.47;;;0.83;;
8881;SDS011;4477;48.736;9.176;2024-03-23T15:00:11;2.03;;;1.00;;
8881;SDS011;4477;48.736;9.176;2024-03-23T15:02:38;2.07;;;0.90;;
8881;SDS011;4477;48.736;9.176;2024-03-23T15:05:05;2.30;;;0.70;;
8881;SDS011;4477;48.736;9.176;2024-03-23T15:07:34;2.40;;;1.20;;
8881;SDS011;4477;48.736;9.176;2024-03-23T15:10:01;1.97;;;1.47;;
8881;SDS011;4477;48.736;9.176;2024-03-23T15:12:31;1.30;;;1.10;;
8881;SDS011;4477;48.736;9.176;2024-03-23T15:14:59;1.87;;;1.20;;
8881;SDS011;4477;48.736;9.176;2024-03-23T15:17:25;2.43;;;1.33;;
8881;SDS011;4477;48.736;9.176;2024-03-23T15:19:52;4.93;;;1.40;;
8881;SDS011;4477;48.736;9.176;2024-03-23T15:22:18;1.37;;;1.10;;
8881;SDS011;4477;48.736;9.176;2024-03-23T15:24:45;1.77;;;1.00;;
8881;SDS011;4477;48.736;9.176;2024-03-23T15:27:11;3.23;;;1.20;;
8881;SDS011;4477;48.736;9.176;2024-03-23T15:29:39;2.33;;;1.20;;
8881;SDS011;4477;48.736;9.176;2024-03-23T15:32:07;1.37;;;0.83;;
8881;SDS011;4477;48.736;9.176;2024-03-23T15:34:34;1.77;;;1.10;;
8881;SDS011;4477;48.736;9.176;2024-03-23T15:37:00;1.47;;;1.00;;
8881;SDS011;4477;48.736;9.176;2024-03-23T15:39:27;1.97;;;1.20;;
8881;SDS011;4477;48.736;9.176;2024-03-23T15:41:53;2.20;;;1.30;;
8881;SDS011;4477;48.736;9.176;2024-03-23T15:44:20;2.17;;;0.97;;
8881;SDS011;4477;48.736;9.176;2024-03-23T15:46:48;3.17;;;1.30;;
8881;SDS011;4477;48.736;9.176;2024-03-23T15:49:15;3.00;;;1.30;;
8881;SDS011;4477;48.736;9.176;2024-03-23T15:51:41;1.77;;;1.30;;
8881;SDS011;4477;48.736;9.176;2024-03-23T15:54:09;4.43;;;1.50;;
8881;SDS011;4477;48.736;9.176;2024-03-23T15:56:35;1.60;;;0.90;;
8881;SDS011;4477;48.736;9.176;2024-03-23T15:59:02;2.27;;;1.10;;
8881;SDS011;4477;48.736;9.176;2024-03-23T16:01:30;2.47;;;1.13;;
8881;SDS011;4477;48.736;9.176;2024-03-23T16:04:00;2.13;;;1.33;;
8881;SDS011;4477;48.736;9.176;2024-03-23T16:06:26;2.83;;;1.50;;
8881;SDS011;4477;48.736;9.176;2024-03-23T16:08:53;2.33;;;1.10;;
8881;SDS011;4477;48.736;9.176;2024-03-23T16:11:19;1.80;;;0.90;;
8881;SDS011;4477;48.736;9.176;2024-03-23T16:13:46;1.10;;;0.73;;